Time;durP1;ratioP1;P1;durP2;ratioP2;P2;SDS_P1;SDS_P2;PMS_P1;PMS_P2;Temp;Humidity;BMP_temperature;BMP_pressure;BME280_temperature;BME280_humidity;BME280_pressure;Samples;Min_cycle;Max_cycle;Signal;HPM_P1;HPM_P2
2022/08/24 00:01:14;;;;;;;3.42;1.50;;;26.70;68.50;;;;;;5051433;28;20021;-87
2022/08/24 00:03:42;;;;;;;2.28;1.50;;;26.70;68.50;;;;;;5036099;28;20013;-85
2022/08/24 00:06:16;;;;;;;1.35;1.13;;;26.70;68.70;;;;;;5044789;28;20053;-85
2022/08/24 00:08:42;;;;;;;1.98;1.25;;;26.70;68.90;;;;;;5042189;28;20033;-83
2022/08/24 00:11:08;;;;;;;4.95;1.55;;;26.70;68.70;;;;;;5056063;28;20366;-83
2022/08/24 00:13:35;;;;;;;2.42;1.30;;;26.70;68.80;;;;;;5053418;28;20122;-83
2022/08/24 00:16:01;;;;;;;2.03;1.38;;;26.70;69.10;;;;;;5036605;28;20033;-82
2022/08/24 00:18:27;;;;;;;2.40;1.70;;;26.70;69.00;;;;;;5044128;28;20024;-83
2022/08/24 00:20:55;;;;;;;1.95;1.27;;;26.70;69.00;;;;;;5050743;28;20346;-85
2022/08/24 00:23:21;;;;;;;2.65;1.38;;;26.70;69.30;;;;;;5046385;28;20033;-87
2022/08/24 00:25:47;;;;;;;2.67;1.50;;;26.60;69.30;;;;;;5046192;28;20363;-85
2022/08/24 00:28:14;;;;;;;2.22;1.30;;;26.60;69.50;;;;;;5054153;28;20041;-88
2022/08/24 00:30:40;;;;;;;1.98;1.35;;;26.60;69.70;;;;;;5048452;28;20033;-83
2022/08/24 00:33:07;;;;;;;2.03;1.40;;;26.60;69.80;;;;;;5048552;28;20025;-88
2022/08/24 00:35:32;;;;;;;2.38;1.77;;;26.60;70.10;;;;;;5053944;28;20396;-86
2022/08/24 00:37:58;;;;;;;1.50;1.40;;;26.60;70.30;;;;;;5048744;28;20033;-85
2022/08/24 00:40:34;;;;;;;1.73;1.30;;;26.60;70.40;;;;;;5045936;28;20432;-85
2022/08/24 00:43:02;;;;;;;4.85;1.83;;;26.60;70.70;;;;;;5046347;28;20068;-85
2022/08/24 00:45:29;;;;;;;1.60;1.40;;;26.60;71.00;;;;;;5055389;28;20032;-82
2022/08/24 00:47:59;;;;;;;9.63;1.70;;;26.50;71.20;;;;;;5049677;28;20056;-83
2022/08/24 00:50:39;;;;;;;2.83;1.60;;;26.50;71.00;;;;;;5055760;28;20044;-84
2022/08/24 00:53:14;;;;;;;3.67;1.60;;;26.50;71.10;;;;;;5044706;28;20075;-83
2022/08/24 00:55:49;;;;;;;2.75;1.38;;;26.50;71.30;;;;;;5036003;28;20501;-84
2022/08/24 00:58:19;;;;;;;2.75;1.60;;;26.40;71.40;;;;;;5047985;28;20033;-84
2022/08/24 01:01:02;;;;;;;2.22;1.27;;;26.40;71.40;;;;;;5040652;28;20492;-86
2022/08/24 01:03:28;;;;;;;2.45;1.50;;;26.40;71.60;;;;;;5039750;28;20477;-86
2022/08/24 01:05:55;;;;;;;1.73;1.05;;;26.40;71.80;;;;;;5055681;28;20025;-86
2022/08/24 01:08:22;;;;;;;2.45;1.27;;;26.40;72.10;;;;;;5051847;28;20029;-87
2022/08/24 01:10:54;;;;;;;3.47;1.30;;;26.40;71.80;;;;;;5047024;28;20079;-85
2022/08/24 01:13:21;;;;;;;1.90;1.45;;;26.40;71.70;;;;;;5037035;28;20320;-87
2022/08/24 01:15:50;;;;;;;2.55;1.50;;;26.40;71.70;;;;;;5036778;28;20052;-90
2022/08/24 01:21:14;;;;;;;3.08;1.70;;;26.40;71.90;;;;;;5040500;28;20095;-83
2022/08/24 01:23:50;;;;;;;1.63;1.35;;;26.30;72.00;;;;;;5035059;28;20017;-84
2022/08/24 01:26:33;;;;;;;3.67;1.27;;;26.30;71.90;;;;;;5048766;28;20033;-87
2022/08/24 01:29:22;;;;;;;4.60;1.48;;;26.30;72.00;;;;;;5055303;28;20032;-87
2022/08/24 01:31:48;;;;;;;1.40;1.20;;;26.30;71.90;;;;;;5055759;28;20025;-85
2022/08/24 01:34:14;;;;;;;1.60;1.33;;;26.30;71.80;;;;;;5041287;28;20024;-87
2022/08/24 01:36:46;;;;;;;1.35;1.00;;;26.30;71.60;;;;;;5042093;28;20026;-86
2022/08/24 01:39:14;;;;;;;2.25;1.40;;;26.30;71.80;;;;;;5038281;28;20047;-85
2022/08/24 01:41:39;;;;;;;1.30;0.98;;;26.30;71.70;;;;;;5047301;28;20021;-87
2022/08/24 01:44:05;;;;;;;2.30;1.08;;;26.30;71.80;;;;;;5051804;28;20536;-86
2022/08/24 01:46:31;;;;;;;2.72;1.50;;;26.30;71.70;;;;;;5035655;28;20053;-88
2022/08/24 01:48:57;;;;;;;2.45;1.27;;;26.30;71.70;;;;;;5046880;28;20051;-88
2022/08/24 01:51:28;;;;;;;1.48;1.00;;;26.20;71.70;;;;;;5051384;28;20032;-87
2022/08/24 01:53:54;;;;;;;1.50;1.02;;;26.20;71.70;;;;;;5054910;28;20017;-87
2022/08/24 01:56:20;;;;;;;1.55;1.02;;;26.20;71.90;;;;;;5045470;28;20056;-87
2022/08/24 01:58:47;;;;;;;1.55;1.10;;;26.20;72.00;;;;;;5054332;28;20063;-87
2022/08/24 02:01:16;;;;;;;4.55;1.30;;;26.20;72.10;;;;;;5043979;28;20025;-86
2022/08/24 02:03:42;;;;;;;3.47;1.20;;;26.10;72.10;;;;;;5041214;28;20082;-86
2022/08/24 02:06:08;;;;;;;1.27;1.17;;;26.10;72.20;;;;;;5038685;28;20052;-87
2022/08/24 02:08:35;;;;;;;3.40;1.17;;;26.10;72.30;;;;;;5053811;28;20053;-85
2022/08/24 02:11:07;;;;;;;1.55;1.10;;;26.10;72.20;;;;;;5044885;28;20032;-85
2022/08/24 02:13:34;;;;;;;2.58;1.13;;;26.00;72.10;;;;;;5050582;28;20018;-85
2022/08/24 02:16:00;;;;;;;3.15;1.20;;;26.00;72.20;;;;;;5049844;28;20039;-85
2022/08/24 02:18:26;;;;;;;2.00;1.25;;;26.00;72.40;;;;;;5051808;28;20032;-84
2022/08/24 02:20:52;;;;;;;1.75;0.98;;;26.00;72.40;;;;;;5048287;28;20078;-86
2022/08/24 02:23:19;;;;;;;2.00;1.20;;;26.00;72.40;;;;;;5044419;28;20029;-84
2022/08/24 02:25:45;;;;;;;1.00;0.90;;;26.00;72.40;;;;;;5046515;28;20028;-84
2022/08/24 02:28:12;;;;;;;2.67;1.27;;;26.00;72.30;;;;;;5046793;28;20048;-85
2022/08/24 02:30:39;;;;;;;1.40;1.15;;;26.00;72.20;;;;;;5041261;28;20040;-85
2022/08/24 02:33:06;;;;;;;2.22;1.08;;;26.00;72.20;;;;;;5034869;28;20039;-84
2022/08/24 02:35:31;;;;;;;2.33;0.95;;;25.90;72.10;;;;;;5037290;28;20064;-84
2022/08/24 02:37:57;;;;;;;3.30;0.90;;;25.90;72.10;;;;;;5045103;28;20029;-84
2022/08/24 02:40:24;;;;;;;1.33;0.98;;;25.90;72.30;;;;;;5046351;28;20047;-85
2022/08/24 02:42:50;;;;;;;3.60;1.23;;;25.80;72.30;;;;;;5033849;28;20050;-83
2022/08/24 02:45:16;;;;;;;1.25;1.08;;;25.80;72.90;;;;;;5047134;28;20032;-82
2022/08/24 02:47:43;;;;;;;1.50;0.98;;;25.80;72.70;;;;;;5053144;28;20119;-82
2022/08/24 02:50:11;;;;;;;3.95;0.95;;;25.80;73.00;;;;;;5052643;28;20036;-82
2022/08/24 02:52:40;;;;;;;2.50;1.20;;;25.90;73.30;;;;;;5053314;28;20055;-83
2022/08/24 02:55:11;;;;;;;1.55;1.00;;;25.80;73.20;;;;;;5042646;28;20048;-84
2022/08/24 02:57:37;;;;;;;1.38;1.08;;;25.80;73.20;;;;;;5046256;28;20025;-86
2022/08/24 03:00:07;;;;;;;3.28;1.00;;;25.80;73.10;;;;;;5051401;28;20116;-88
2022/08/24 03:02:32;;;;;;;1.63;1.20;;;25.80;73.20;;;;;;5045123;28;20114;-86
2022/08/24 03:04:58;;;;;;;4.68;1.17;;;25.80;73.10;;;;;;5052526;28;20076;-87
2022/08/24 03:07:24;;;;;;;1.60;1.10;;;25.80;73.00;;;;;;5053198;28;20032;-84
2022/08/24 03:09:49;;;;;;;1.23;1.00;;;25.80;73.10;;;;;;5053881;28;20397;-83
2022/08/24 03:12:17;;;;;;;2.65;1.10;;;25.80;73.20;;;;;;5044656;28;20028;-84
2022/08/24 03:14:43;;;;;;;2.10;1.27;;;25.80;73.10;;;;;;5034146;28;20093;-85
2022/08/24 03:17:09;;;;;;;1.55;0.85;;;25.70;73.00;;;;;;5033815;28;20029;-84
2022/08/24 03:19:35;;;;;;;4.55;1.00;;;25.70;73.00;;;;;;5051946;28;20384;-84
2022/08/24 03:22:01;;;;;;;3.22;1.08;;;25.70;72.90;;;;;;5053421;28;20017;-86
2022/08/24 03:24:27;;;;;;;1.33;0.80;;;25.70;73.10;;;;;;5039348;28;20030;-83
2022/08/24 03:26:53;;;;;;;1.35;1.00;;;25.70;73.10;;;;;;5032044;28;20336;-85
2022/08/24 03:29:18;;;;;;;3.53;0.90;;;25.70;73.10;;;;;;5039424;28;20484;-86
2022/08/24 03:31:44;;;;;;;2.80;1.05;;;25.70;73.10;;;;;;5038512;28;20493;-85
2022/08/24 03:34:12;;;;;;;1.27;1.00;;;25.70;73.10;;;;;;5049337;28;20492;-85
2022/08/24 03:36:39;;;;;;;1.25;0.75;;;25.70;72.90;;;;;;5052521;28;20474;-87
2022/08/24 03:39:06;;;;;;;0.90;0.65;;;25.70;72.90;;;;;;5053349;28;20488;-86
2022/08/24 03:41:31;;;;;;;1.70;1.10;;;25.70;72.80;;;;;;5052613;28;20163;-89
2022/08/24 03:43:57;;;;;;;1.20;0.93;;;25.70;72.60;;;;;;5057155;28;20045;-89
2022/08/24 03:46:31;;;;;;;5.28;1.25;;;25.70;72.90;;;;;;5054535;28;20104;-91
2022/08/24 03:48:57;;;;;;;2.00;0.90;;;25.60;72.30;;;;;;5039684;28;20159;-90
2022/08/24 03:51:25;;;;;;;2.10;1.00;;;25.70;72.20;;;;;;5040686;28;20335;-88
2022/08/24 03:53:53;;;;;;;1.08;0.65;;;25.70;72.10;;;;;;5040421;28;20050;-90
2022/08/24 03:56:19;;;;;;;1.02;0.70;;;25.70;72.10;;;;;;5040488;28;20079;-89
2022/08/24 03:58:46;;;;;;;1.08;0.80;;;25.70;72.10;;;;;;5055961;28;20028;-88
2022/08/24 04:01:12;;;;;;;2.83;0.88;;;25.70;72.20;;;;;;5060151;28;20029;-88
2022/08/24 04:03:40;;;;;;;1.80;0.90;;;25.70;72.20;;;;;;5059275;28;20481;-85
2022/08/24 04:06:08;;;;;;;1.30;0.82;;;25.60;72.10;;;;;;5059365;28;20025;-86
2022/08/24 04:08:34;;;;;;;1.30;0.77;;;25.60;72.00;;;;;;5054043;28;20030;-86
2022/08/24 04:11:00;;;;;;;1.13;0.85;;;25.60;71.90;;;;;;5048045;28;20028;-86
2022/08/24 04:13:30;;;;;;;2.70;0.70;;;25.60;71.90;;;;;;5059664;28;20100;-86
2022/08/24 04:15:58;;;;;;;1.30;0.85;;;25.60;71.90;;;;;;5044187;28;20059;-87
2022/08/24 04:18:23;;;;;;;3.28;0.90;;;25.50;71.80;;;;;;5061796;28;20040;-86
2022/08/24 04:20:49;;;;;;;3.83;0.82;;;25.50;71.90;;;;;;5059566;28;20030;-89
2022/08/24 04:23:16;;;;;;;2.97;0.90;;;25.50;72.10;;;;;;5047331;28;20110;-85
2022/08/24 04:25:46;;;;;;;1.70;1.00;;;25.50;72.30;;;;;;5046549;28;20191;-85
2022/08/24 04:28:14;;;;;;;1.98;0.85;;;25.50;72.40;;;;;;5038989;28;20466;-84
2022/08/24 04:31:04;;;;;;;1.05;0.60;;;25.50;72.40;;;;;;5043606;28;20025;-84
2022/08/24 04:33:30;;;;;;;3.50;1.13;;;25.40;72.30;;;;;;5057978;28;20086;-83
2022/08/24 04:35:56;;;;;;;1.65;1.08;;;25.40;72.40;;;;;;5050169;28;20033;-86
2022/08/24 04:38:22;;;;;;;1.00;0.90;;;25.40;72.30;;;;;;5054282;28;20098;-87
2022/08/24 04:40:48;;;;;;;4.03;1.10;;;25.40;72.30;;;;;;5058583;28;20025;-91
2022/08/24 04:43:15;;;;;;;3.60;1.23;;;25.40;72.40;;;;;;5055075;28;20045;-90
2022/08/24 04:45:43;;;;;;;2.25;1.20;;;25.30;72.70;;;;;;5039761;28;20588;-89
2022/08/24 04:48:10;;;;;;;1.75;1.10;;;25.30;72.80;;;;;;5039550;28;20571;-90
2022/08/24 04:50:37;;;;;;;1.52;1.10;;;25.20;73.00;;;;;;5039957;28;20029;-90
2022/08/24 04:53:04;;;;;;;1.10;0.90;;;25.20;73.00;;;;;;5059268;28;20104;-87
2022/08/24 04:55:31;;;;;;;1.65;1.10;;;25.20;73.00;;;;;;5052721;28;20037;-91
2022/08/24 04:58:02;;;;;;;2.28;1.20;;;25.20;73.20;;;;;;5041812;28;20029;-86
2022/08/24 05:00:37;;;;;;;1.92;1.10;;;25.20;73.10;;;;;;5043154;28;20094;-86
2022/08/24 05:03:03;;;;;;;1.17;0.70;;;25.30;73.00;;;;;;5047005;28;20119;-84
2022/08/24 05:05:28;;;;;;;3.17;1.38;;;25.30;72.70;;;;;;5038733;28;20367;-85
2022/08/24 05:07:54;;;;;;;2.13;1.10;;;25.30;72.60;;;;;;5045833;28;20025;-87
2022/08/24 05:10:21;;;;;;;3.65;1.15;;;25.30;72.30;;;;;;5055897;28;20068;-88
2022/08/24 05:12:47;;;;;;;2.17;1.10;;;25.30;72.10;;;;;;5039071;28;20029;-88
2022/08/24 05:15:15;;;;;;;2.50;1.23;;;25.30;72.10;;;;;;5049415;28;20029;-90
2022/08/24 05:17:42;;;;;;;1.25;1.00;;;25.30;71.80;;;;;;5057421;28;20029;-90
2022/08/24 05:20:10;;;;;;;1.67;1.20;;;25.30;71.60;;;;;;5055682;28;20040;-85
2022/08/24 05:22:37;;;;;;;2.33;0.90;;;25.30;71.60;;;;;;5038705;28;20055;-84
2022/08/24 05:25:04;;;;;;;3.08;1.40;;;25.30;71.80;;;;;;5034657;28;20384;-84
2022/08/24 05:27:32;;;;;;;2.08;1.30;;;25.30;71.60;;;;;;5035733;28;20092;-84
2022/08/24 05:29:58;;;;;;;1.88;1.00;;;25.30;71.40;;;;;;5040414;28;20037;-84
2022/08/24 05:32:23;;;;;;;1.17;1.00;;;25.30;71.50;;;;;;5040491;28;20109;-83
2022/08/24 05:34:50;;;;;;;2.35;1.70;;;25.30;71.80;;;;;;5036721;28;20108;-87
2022/08/24 05:37:16;;;;;;;2.20;1.30;;;25.30;72.10;;;;;;5056161;28;20389;-89
2022/08/24 05:39:42;;;;;;;3.03;1.90;;;25.30;72.70;;;;;;5054871;28;20033;-89
2022/08/24 05:42:08;;;;;;;2.22;1.92;;;25.30;72.60;;;;;;5055082;28;20034;-90
2022/08/24 05:44:34;;;;;;;5.32;2.25;;;25.30;73.10;;;;;;5055590;28;20021;-90
2022/08/24 05:47:00;;;;;;;4.97;2.03;;;25.30;73.70;;;;;;5055666;28;20025;-89
2022/08/24 05:49:26;;;;;;;3.97;2.40;;;25.20;73.50;;;;;;5053550;28;20503;-83
2022/08/24 05:51:52;;;;;;;2.28;2.00;;;25.20;73.70;;;;;;5055000;28;20051;-87
2022/08/24 05:54:19;;;;;;;3.80;1.80;;;25.30;74.10;;;;;;5055627;28;20033;-86
2022/08/24 05:56:45;;;;;;;3.95;1.90;;;25.30;74.50;;;;;;5035759;28;20108;-88
2022/08/24 05:59:13;;;;;;;3.03;2.35;;;25.20;74.40;;;;;;5035458;28;20029;-90
2022/08/24 06:01:40;;;;;;;2.85;1.92;;;25.20;74.80;;;;;;5053582;28;20055;-88
2022/08/24 06:04:06;;;;;;;3.30;1.95;;;25.10;74.60;;;;;;5056181;28;20017;-88
2022/08/24 06:06:32;;;;;;;4.03;1.80;;;25.10;74.90;;;;;;5038425;28;20533;-89
2022/08/24 06:08:59;;;;;;;3.28;2.08;;;25.10;75.30;;;;;;5036904;28;20029;-85
2022/08/24 06:11:32;;;;;;;3.22;2.13;;;25.10;75.60;;;;;;5048879;28;20021;-84
2022/08/24 06:14:01;;;;;;;2.35;1.85;;;25.10;75.70;;;;;;5050879;28;20018;-84
2022/08/24 06:16:27;;;;;;;4.27;2.10;;;25.10;75.60;;;;;;5048817;28;20033;-84
2022/08/24 06:18:53;;;;;;;7.03;2.33;;;25.20;75.70;;;;;;5041365;28;20272;-85
2022/08/24 06:21:22;;;;;;;4.10;2.63;;;25.20;76.00;;;;;;5046852;28;20460;-85
2022/08/24 06:23:49;;;;;;;3.33;2.13;;;25.20;75.90;;;;;;5051517;28;20154;-87
2022/08/24 06:29:01;;;;;;;2.40;1.92;;;25.20;76.20;;;;;;5054900;28;20064;-85
2022/08/24 06:31:38;;;;;;;3.38;2.50;;;25.20;76.30;;;;;;5038010;28;20032;-84
2022/08/24 06:34:11;;;;;;;2.83;2.50;;;25.30;76.50;;;;;;5046422;28;20044;-86
2022/08/24 06:36:38;;;;;;;3.17;2.00;;;25.30;76.60;;;;;;5043695;28;20032;-85
2022/08/24 06:39:16;;;;;;;4.85;2.53;;;25.30;76.40;;;;;;5045527;28;20025;-85
2022/08/24 06:41:41;;;;;;;2.88;2.38;;;25.30;76.50;;;;;;5048780;28;20086;-85
2022/08/24 06:44:07;;;;;;;4.38;2.50;;;25.30;76.50;;;;;;5053012;28;20045;-85
2022/08/24 06:46:35;;;;;;;4.70;2.20;;;25.30;76.80;;;;;;5050365;28;20048;-85
2022/08/24 06:49:01;;;;;;;3.05;2.08;;;25.30;76.50;;;;;;5047382;28;20545;-85
2022/08/24 06:51:27;;;;;;;3.75;1.90;;;25.30;76.70;;;;;;5047719;28;20031;-86
2022/08/24 06:53:56;;;;;;;3.17;2.10;;;25.40;77.00;;;;;;5052509;28;20036;-86
2022/08/24 06:56:25;;;;;;;2.45;1.70;;;25.50;76.90;;;;;;5048147;28;20400;-83
2022/08/24 06:58:51;;;;;;;2.13;1.55;;;25.50;76.50;;;;;;5038720;28;20083;-85
2022/08/24 07:01:23;;;;;;;3.10;1.42;;;25.50;76.40;;;;;;5047774;28;20037;-85
2022/08/24 07:03:50;;;;;;;2.25;1.48;;;25.60;76.70;;;;;;5044056;28;20033;-85
2022/08/24 07:06:17;;;;;;;3.58;1.45;;;25.60;76.90;;;;;;5052695;28;20025;-87
2022/08/24 07:08:43;;;;;;;2.90;1.50;;;25.70;77.00;;;;;;5049924;28;20041;-84
2022/08/24 07:11:10;;;;;;;2.50;1.55;;;25.70;76.30;;;;;;5045186;28;20049;-83
2022/08/24 07:13:36;;;;;;;3.58;1.52;;;25.80;76.00;;;;;;5049480;28;20465;-85
2022/08/24 07:16:03;;;;;;;2.05;1.45;;;26.00;75.80;;;;;;5047974;28;20048;-83
2022/08/24 07:18:29;;;;;;;1.70;1.40;;;25.80;75.80;;;;;;5049826;28;20033;-83
2022/08/24 07:20:55;;;;;;;2.13;0.98;;;25.90;75.70;;;;;;5044073;28;20021;-84
2022/08/24 07:23:21;;;;;;;2.85;1.30;;;25.90;75.40;;;;;;5043986;28;20446;-84
2022/08/24 07:25:51;;;;;;;1.92;0.80;;;26.00;75.30;;;;;;5047727;28;20135;-84
2022/08/24 07:28:17;;;;;;;1.75;0.95;;;26.10;75.40;;;;;;5031462;28;20470;-86
2022/08/24 07:30:42;;;;;;;2.25;1.10;;;26.10;74.90;;;;;;5045625;28;20028;-86
2022/08/24 07:33:09;;;;;;;2.90;1.10;;;26.10;74.30;;;;;;5044451;28;20350;-86
2022/08/24 07:35:36;;;;;;;4.22;0.95;;;26.20;74.10;;;;;;5046636;28;20083;-86
2022/08/24 07:38:03;;;;;;;0.68;0.68;;;26.20;73.90;;;;;;5048733;28;20033;-84
2022/08/24 07:40:29;;;;;;;4.60;0.85;;;26.30;73.80;;;;;;5050131;28;20029;-84
2022/08/24 07:42:57;;;;;;;3.58;0.80;;;26.40;73.20;;;;;;5052271;28;20052;-86
2022/08/24 07:45:25;;;;;;;0.95;0.60;;;26.40;73.00;;;;;;5059068;28;20058;-86
2022/08/24 07:47:51;;;;;;;2.55;0.70;;;26.50;72.90;;;;;;5063268;28;20026;-86
2022/08/24 07:50:17;;;;;;;1.27;0.80;;;26.50;72.90;;;;;;5062560;28;20068;-86
2022/08/24 07:52:44;;;;;;;1.70;0.70;;;26.60;72.80;;;;;;5052998;28;20025;-86
2022/08/24 07:55:11;;;;;;;1.20;0.80;;;26.60;72.20;;;;;;5054410;28;20116;-87
2022/08/24 07:57:38;;;;;;;2.63;0.68;;;26.70;72.20;;;;;;5052962;28;20035;-85
2022/08/24 08:00:07;;;;;;;0.75;0.75;;;26.70;71.90;;;;;;5054697;28;20429;-87
2022/08/24 08:02:33;;;;;;;4.53;1.10;;;26.80;72.00;;;;;;5050121;28;20025;-85
2022/08/24 08:04:59;;;;;;;0.85;0.77;;;26.90;71.60;;;;;;5037370;28;20044;-88
2022/08/24 08:07:25;;;;;;;0.73;0.52;;;26.90;71.90;;;;;;5040562;28;20029;-88
2022/08/24 08:09:51;;;;;;;3.10;0.90;;;27.00;71.90;;;;;;5049396;28;20040;-87
2022/08/24 08:12:18;;;;;;;1.58;0.70;;;27.10;71.90;;;;;;5053808;28;20025;-83
2022/08/24 08:14:44;;;;;;;1.00;0.63;;;27.20;71.70;;;;;;5051514;28;20108;-82
2022/08/24 08:17:10;;;;;;;1.27;0.80;;;27.30;71.00;;;;;;5052228;28;20109;-83
2022/08/24 08:19:42;;;;;;;0.82;0.60;;;27.30;70.20;;;;;;5050749;28;20044;-84
2022/08/24 08:24:52;;;;;;;1.23;0.90;;;27.50;70.60;;;;;;5042867;28;20036;-83
2022/08/24 08:27:20;;;;;;;0.50;0.50;;;27.60;70.20;;;;;;5046103;28;20017;-82
2022/08/24 08:29:47;;;;;;;1.80;0.70;;;27.60;69.90;;;;;;5038791;28;20013;-83
2022/08/24 08:32:15;;;;;;;1.30;0.50;;;27.70;69.60;;;;;;5045724;28;20021;-87
2022/08/24 08:34:42;;;;;;;0.68;0.60;;;27.80;69.60;;;;;;5047303;28;20021;-83
2022/08/24 08:37:09;;;;;;;1.45;0.50;;;27.80;68.50;;;;;;5050188;28;20029;-82
2022/08/24 08:39:35;;;;;;;0.90;0.55;;;27.80;67.30;;;;;;5039862;28;20024;-84
2022/08/24 08:42:22;;;;;;;26.30;23.50;;;27.90;67.00;;;;;;5067408;28;20120;-89
2022/08/24 08:45:19;;;;;;;20.25;18.20;;;28.00;66.60;;;;;;5052618;28;20172;-88
2022/08/24 08:47:58;;;;;;;46.25;40.70;;;28.00;66.00;;;;;;5036361;28;20053;-88
2022/08/24 08:50:44;;;;;;;6.72;6.05;;;28.10;65.10;;;;;;5040045;28;20048;-88
2022/08/24 08:53:44;;;;;;;2.25;1.80;;;28.20;65.40;;;;;;5057496;28;20477;-88
2022/08/24 08:56:38;;;;;;;0.90;0.80;;;28.30;65.20;;;;;;5052665;28;20032;-89
2022/08/24 08:59:33;;;;;;;0.85;0.68;;;28.40;63.90;;;;;;5042565;28;20032;-88
2022/08/24 09:02:13;;;;;;;0.90;0.77;;;28.40;64.30;;;;;;5046209;28;20044;-87
2022/08/24 09:05:09;;;;;;;0.77;0.73;;;28.60;63.70;;;;;;5055520;28;20044;-87
2022/08/24 09:07:49;;;;;;;2.55;0.88;;;28.70;63.90;;;;;;5052853;28;20075;-87
2022/08/24 09:10:48;;;;;;;0.90;0.70;;;28.70;63.90;;;;;;5051363;28;20040;-84
2022/08/24 09:13:46;;;;;;;2.05;1.40;;;28.80;63.20;;;;;;5052854;28;20051;-87
2022/08/24 09:16:26;;;;;;;1.80;0.80;;;28.90;63.70;;;;;;5049089;28;20043;-86
2022/08/24 09:19:35;;;;;;;2.97;0.93;;;29.00;63.20;;;;;;5050510;28;20056;-87
2022/08/24 09:22:10;;;;;;;1.33;0.82;;;29.00;61.20;;;;;;5045181;28;20029;-86
2022/08/24 09:24:43;;;;;;;2.00;0.80;;;29.00;61.60;;;;;;5042473;28;20035;-86
2022/08/24 09:27:31;;;;;;;2.05;0.80;;;29.10;61.60;;;;;;5047503;28;20033;-86
2022/08/24 09:30:15;;;;;;;1.10;0.70;;;29.10;61.40;;;;;;5045720;28;20021;-86
2022/08/24 09:33:05;;;;;;;2.88;1.08;;;29.10;60.00;;;;;;5039957;28;20354;-84
2022/08/24 09:35:37;;;;;;;0.63;0.60;;;29.10;60.20;;;;;;5053143;28;20035;-84
2022/08/24 09:38:40;;;;;;;0.70;0.45;;;29.10;61.10;;;;;;5049830;28;20798;-85
2022/08/24 09:41:44;;;;;;;0.77;0.45;;;29.20;60.80;;;;;;5049297;28;20045;-84
2022/08/24 09:44:43;;;;;;;1.88;0.50;;;29.30;59.00;;;;;;5050435;28;20430;-83
2022/08/24 09:47:36;;;;;;;0.77;0.60;;;29.40;60.30;;;;;;5043343;28;20465;-85
2022/08/24 09:50:08;;;;;;;1.45;0.63;;;29.50;60.00;;;;;;5053961;28;20031;-84
2022/08/24 09:52:59;;;;;;;0.70;0.70;;;29.50;59.50;;;;;;5054459;28;20054;-85
2022/08/24 09:55:37;;;;;;;2.25;0.82;;;29.60;59.10;;;;;;5046762;28;20036;-85
2022/08/24 09:58:09;;;;;;;0.93;0.60;;;29.80;59.70;;;;;;5038364;28;20029;-85
2022/08/24 10:00:46;;;;;;;1.88;0.77;;;29.90;59.40;;;;;;5051985;28;20064;-86
2022/08/24 10:03:44;;;;;;;0.90;0.80;;;30.10;59.10;;;;;;5041354;28;20443;-86
2022/08/24 10:06:35;;;;;;;0.73;0.52;;;30.20;58.90;;;;;;5046430;28;20040;-87
2022/08/24 10:09:45;;;;;;;1.13;0.60;;;30.40;59.30;;;;;;5045368;28;20013;-85
2022/08/24 10:12:19;;;;;;;7.68;1.00;;;30.50;58.50;;;;;;4996935;28;20030;-84
2022/08/24 10:15:05;;;;;;;1.13;0.60;;;30.60;58.70;;;;;;5034772;28;20124;-83
2022/08/24 10:18:05;;;;;;;1.02;0.57;;;30.70;57.80;;;;;;5050589;28;20035;-86
2022/08/24 10:20:57;;;;;;;1.75;0.60;;;30.90;58.20;;;;;;5053163;28;20067;-87
2022/08/24 10:23:44;;;;;;;1.75;1.00;;;30.90;56.90;;;;;;5035073;28;20065;-85
2022/08/24 10:26:43;;;;;;;0.77;0.60;;;30.90;56.20;;;;;;5053565;28;20090;-86
2022/08/24 10:29:32;;;;;;;1.00;0.50;;;30.80;56.70;;;;;;5037646;28;20124;-85
2022/08/24 10:32:19;;;;;;;2.15;0.70;;;30.80;54.90;;;;;;5049399;28;20029;-84
2022/08/24 10:35:01;;;;;;;1.58;0.90;;;30.90;57.10;;;;;;5045126;28;20117;-85
2022/08/24 10:39:39;;;;;;;1.40;0.73;;;31.10;56.80;;;;;;5053821;28;20052;-83
2022/08/24 10:40:51;;;;;;;1.23;0.70;;;31.20;56.80;;;;;;5033702;28;20044;-82
2022/08/24 10:43:40;;;;;;;1.52;0.70;;;31.50;56.90;;;;;;5034378;28;20086;-84
2022/08/24 10:46:23;;;;;;;0.65;0.63;;;31.70;56.90;;;;;;5038649;28;20044;-84
2022/08/24 10:48:59;;;;;;;0.95;0.60;;;31.90;56.10;;;;;;5052208;28;20119;-85
2022/08/24 10:51:59;;;;;;;0.60;0.60;;;32.00;56.00;;;;;;5044403;28;20045;-87
2022/08/24 10:54:25;;;;;;;;;;;32.20;55.50;;;;;;5048709;28;20103;-84
2022/08/24 10:57:05;;;;;;;3.30;0.93;;;32.40;55.70;;;;;;5036490;28;19992;-86
2022/08/24 10:59:35;;;;;;;0.90;0.80;;;32.60;55.20;;;;;;5045206;28;20029;-85
2022/08/24 11:02:02;;;;;;;;;;;32.60;53.60;;;;;;5050509;28;20021;-85
2022/08/24 11:04:31;;;;;;;0.75;0.68;;;32.60;53.00;;;;;;5049911;28;19905;-84
2022/08/24 11:07:18;;;;;;;2.80;0.98;;;32.70;53.90;;;;;;5044316;28;20044;-85
2022/08/24 11:09:52;;;;;;;2.45;0.70;;;32.80;53.10;;;;;;5040246;28;20436;-85
2022/08/24 11:12:35;;;;;;;0.82;0.60;;;32.80;51.00;;;;;;5050174;28;20033;-85
2022/08/24 11:15:09;;;;;;;1.65;0.85;;;32.70;51.50;;;;;;5045657;28;20036;-85
2022/08/24 11:17:36;;;;;;;1.27;0.70;;;32.70;52.30;;;;;;5042078;28;20035;-85
2022/08/24 11:20:03;;;;;;;0.80;0.70;;;32.90;52.30;;;;;;5046834;28;20061;-85
2022/08/24 11:22:40;;;;;;;3.97;1.05;;;33.10;52.40;;;;;;5058994;28;20039;-85
2022/08/24 11:25:13;;;;;;;1.13;0.55;;;33.40;52.10;;;;;;5049231;28;20033;-85
2022/08/24 11:27:46;;;;;;;0.75;0.60;;;33.50;51.10;;;;;;5043662;28;20033;-85
2022/08/24 11:30:20;;;;;;;1.77;0.95;;;33.50;50.70;;;;;;5049492;28;20031;-85
2022/08/24 11:32:50;;;;;;;2.38;0.70;;;33.60;51.20;;;;;;5053560;28;20032;-86
2022/08/24 11:35:31;;;;;;;2.10;0.80;;;33.80;51.10;;;;;;5041734;28;20033;-85
2022/08/24 11:38:04;;;;;;;0.95;0.80;;;34.00;50.80;;;;;;5044975;28;20041;-84
2022/08/24 11:40:36;;;;;;;1.00;0.80;;;34.30;50.00;;;;;;5049254;28;20405;-87
2022/08/24 11:43:18;;;;;;;2.05;0.85;;;34.60;49.90;;;;;;5050579;28;20045;-87
2022/08/24 11:45:59;;;;;;;0.63;0.60;;;34.80;48.50;;;;;;5049328;28;20100;-83
2022/08/24 11:48:45;;;;;;;3.45;1.67;;;35.00;47.60;;;;;;5050459;28;20029;-82
2022/08/24 11:51:25;;;;;;;5.05;2.00;;;35.20;48.40;;;;;;5046527;28;20029;-82
2022/08/24 11:54:02;;;;;;;2.25;1.10;;;35.40;47.00;;;;;;5053535;28;20028;-81
2022/08/24 11:56:44;;;;;;;3.88;1.23;;;35.60;49.00;;;;;;5049720;28;20082;-83
2022/08/24 11:59:31;;;;;;;1.85;1.10;;;35.70;47.30;;;;;;5049022;28;20116;-83
2022/08/24 12:02:02;;;;;;;70.57;63.38;;;35.90;47.40;;;;;;5046525;28;20013;-83
2022/08/24 12:04:52;;;;;;;88.65;79.38;;;36.00;46.80;;;;;;5051447;28;20025;-83
2022/08/24 12:07:41;;;;;;;20.35;18.35;;;36.10;45.70;;;;;;5048355;28;20465;-84
2022/08/24 12:10:44;;;;;;;2.92;2.63;;;36.20;46.10;;;;;;5046268;28;20385;-85
2022/08/24 12:13:40;;;;;;;1.58;1.20;;;36.40;44.80;;;;;;5056227;28;20032;-86
2022/08/24 12:16:23;;;;;;;3.17;0.90;;;36.60;44.40;;;;;;5056079;28;20033;-83
2022/08/24 12:19:02;;;;;;;0.80;0.63;;;36.60;44.50;;;;;;5055722;28;20039;-86
2022/08/24 12:21:31;;;;;;;1.13;0.85;;;36.60;44.00;;;;;;5054102;28;20040;-86
2022/08/24 12:23:59;;;;;;;1.08;0.82;;;36.70;44.90;;;;;;5036349;28;20022;-85
2022/08/24 12:26:37;;;;;;;2.05;1.08;;;36.90;44.10;;;;;;5051266;28;20112;-85
2022/08/24 12:29:28;;;;;;;1.88;1.00;;;36.90;43.90;;;;;;5042766;28;20846;-85
2022/08/24 12:32:04;;;;;;;3.22;1.10;;;37.10;42.90;;;;;;5044797;28;20036;-84
2022/08/24 12:34:45;;;;;;;2.08;1.00;;;37.10;43.00;;;;;;5044844;28;20100;-86
2022/08/24 12:37:14;;;;;;;1.48;0.82;;;37.10;43.50;;;;;;5044766;28;20049;-86
2022/08/24 12:39:49;;;;;;;2.85;0.93;;;37.30;43.90;;;;;;5046253;28;20025;-85
2022/08/24 12:42:17;;;;;;;2.10;0.90;;;37.60;42.80;;;;;;5050921;28;20470;-84
2022/08/24 12:44:52;;;;;;;1.92;0.88;;;37.40;42.60;;;;;;5044371;28;20026;-85
2022/08/24 12:47:29;;;;;;;2.97;1.02;;;37.30;42.20;;;;;;5046672;28;20020;-85
2022/08/24 12:50:34;;;;;;;1.60;0.82;;;37.30;40.60;;;;;;5039928;28;20072;-85
2022/08/24 12:53:15;;;;;;;1.67;0.95;;;37.10;41.10;;;;;;5046466;28;20024;-85
2022/08/24 12:56:08;;;;;;;1.48;0.88;;;37.20;42.20;;;;;;5046081;28;20826;-86
2022/08/24 12:58:45;;;;;;;4.22;0.90;;;37.40;41.80;;;;;;5044196;28;20057;-85
2022/08/24 13:01:14;;;;;;;1.27;0.80;;;37.40;40.50;;;;;;5045806;28;20033;-85
2022/08/24 13:03:42;;;;;;;1.00;0.70;;;37.50;40.90;;;;;;5043615;28;20105;-85
2022/08/24 13:06:25;;;;;;;0.80;0.80;;;37.40;40.20;;;;;;5045567;28;20425;-85
2022/08/24 13:08:52;;;;;;;4.15;1.23;;;37.40;40.40;;;;;;5047252;28;20078;-85
2022/08/24 13:11:32;;;;;;;0.80;0.60;;;37.20;40.30;;;;;;5046559;28;20489;-86
2022/08/24 13:14:09;;;;;;;1.00;0.68;;;37.00;40.50;;;;;;5046660;28;20029;-85
2022/08/24 13:16:50;;;;;;;3.85;0.98;;;36.90;40.80;;;;;;5041459;28;20041;-87
2022/08/24 13:19:22;;;;;;;1.58;0.90;;;36.80;40.80;;;;;;5054308;28;20055;-86
2022/08/24 13:21:57;;;;;;;2.42;0.77;;;36.70;41.20;;;;;;5042050;28;20037;-86
2022/08/24 13:24:29;;;;;;;1.52;1.00;;;36.60;41.60;;;;;;5044880;28;20091;-86